Time;durP1;ratioP1;P1;durP2;ratioP2;P2;SDS_P1;SDS_P2;PMS_P1;PMS_P2;Temp;Humidity;BMP_temperature;BMP_pressure;BME280_temperature;BME280_humidity;BME280_pressure;Samples;Min_cycle;Max_cycle;Signal;HPM_P1;HPM_P2
2024/01/31 00:01:59;;;;;;;12.43;4.10;;;10.50;93.00;;;;;;4265439;27;20039;-60
2024/01/31 00:04:01;;;;;;;11.65;3.90;;;10.50;92.90;;;;;;4265481;27;20072;-60
2024/01/31 00:06:04;;;;;;;10.52;3.45;;;10.40;92.90;;;;;;4247226;27;20055;-60
2024/01/31 00:08:06;;;;;;;10.00;3.70;;;10.40;92.70;;;;;;4265444;27;20130;-59
2024/01/31 00:10:09;;;;;;;12.10;4.30;;;10.40;92.90;;;;;;4264855;27;20078;-59
2024/01/31 00:12:11;;;;;;;6.45;3.10;;;10.30;92.80;;;;;;4265632;27;20050;-62
2024/01/31 00:14:16;;;;;;;9.32;3.67;;;10.30;94.20;;;;;;4264650;27;20069;-59
2024/01/31 00:16:19;;;;;;;11.48;4.20;;;10.30;94.00;;;;;;4265270;27;20042;-59
2024/01/31 00:18:21;;;;;;;9.18;3.65;;;10.30;93.40;;;;;;4264910;27;20046;-59
2024/01/31 00:20:24;;;;;;;12.07;3.70;;;10.40;93.80;;;;;;4265436;27;20123;-59
2024/01/31 00:22:26;;;;;;;8.10;3.75;;;10.40;93.60;;;;;;4247062;27;20107;-59
2024/01/31 00:24:28;;;;;;;10.63;4.00;;;10.30;93.70;;;;;;4265367;27;20049;-61
2024/01/31 00:26:30;;;;;;;10.98;4.28;;;10.30;93.80;;;;;;4265585;27;20091;-60
2024/01/31 00:28:32;;;;;;;9.45;4.10;;;10.30;94.00;;;;;;4265487;27;20058;-59
2024/01/31 00:30:35;;;;;;;10.68;3.90;;;10.30;93.70;;;;;;4265392;27;20069;-60
2024/01/31 00:32:37;;;;;;;8.85;3.90;;;10.40;94.10;;;;;;4265412;27;20119;-59
2024/01/31 00:34:39;;;;;;;7.47;3.65;;;10.40;93.30;;;;;;4246541;27;20042;-59
2024/01/31 00:36:41;;;;;;;13.40;4.53;;;10.30;93.40;;;;;;4265019;27;20082;-59
2024/01/31 00:38:43;;;;;;;9.38;3.97;;;10.20;93.90;;;;;;4265359;27;20043;-59
2024/01/31 00:40:46;;;;;;;15.23;3.53;;;10.20;94.20;;;;;;4265333;27;20054;-60
2024/01/31 00:42:48;;;;;;;12.77;4.30;;;10.20;94.40;;;;;;4264903;27;20042;-60
2024/01/31 00:44:50;;;;;;;8.05;3.85;;;10.20;94.10;;;;;;4265150;27;20053;-60
2024/01/31 00:46:53;;;;;;;11.00;4.03;;;10.20;94.30;;;;;;4246285;27;20092;-60
2024/01/31 00:48:56;;;;;;;7.20;3.83;;;10.20;93.80;;;;;;4265251;27;20042;-59
2024/01/31 00:51:01;;;;;;;11.60;4.28;;;10.30;94.30;;;;;;4264907;27;20042;-59
2024/01/31 00:53:04;;;;;;;10.73;4.88;;;10.20;93.50;;;;;;4246654;28;20043;-59
2024/01/31 00:55:06;;;;;;;8.43;4.28;;;10.20;93.60;;;;;;4265323;27;20454;-60
2024/01/31 00:57:08;;;;;;;8.52;4.80;;;10.40;94.30;;;;;;4265074;27;20046;-60
2024/01/31 00:59:11;;;;;;;15.13;4.38;;;10.30;94.10;;;;;;4264948;27;20046;-59
2024/01/31 01:01:13;;;;;;;11.68;5.00;;;10.20;94.50;;;;;;4246470;27;20078;-63
2024/01/31 01:03:16;;;;;;;8.98;4.32;;;10.10;94.40;;;;;;4265267;27;20039;-60
2024/01/31 01:05:20;;;;;;;12.27;5.15;;;10.00;94.30;;;;;;4266745;27;20042;-68
2024/01/31 01:07:22;;;;;;;12.95;4.82;;;10.00;94.50;;;;;;4266188;27;20051;-59
2024/01/31 01:09:24;;;;;;;12.60;4.70;;;9.90;94.50;;;;;;4264716;27;20472;-59
2024/01/31 01:11:28;;;;;;;8.85;4.68;;;10.00;94.50;;;;;;4264603;27;20046;-59
2024/01/31 01:13:30;;;;;;;12.02;4.70;;;10.10;94.40;;;;;;4264800;27;20412;-59
2024/01/31 01:15:33;;;;;;;23.30;5.47;;;10.00;94.10;;;;;;4264294;27;20046;-59
2024/01/31 01:17:35;;;;;;;11.10;4.15;;;10.00;94.20;;;;;;4264751;27;20405;-60
2024/01/31 01:19:39;;;;;;;12.90;4.20;;;10.10;94.30;;;;;;4264833;27;20039;-60
2024/01/31 01:21:41;;;;;;;14.13;4.80;;;10.20;94.30;;;;;;4268243;27;20102;-60
2024/01/31 01:23:43;;;;;;;11.23;4.07;;;10.20;94.50;;;;;;4268189;27;20071;-59
2024/01/31 01:25:45;;;;;;;15.15;4.82;;;10.30;94.50;;;;;;4267954;27;20047;-59
2024/01/31 01:27:53;;;;;;;13.98;4.90;;;10.10;93.80;;;;;;4268261;27;20436;-60
2024/01/31 01:29:55;;;;;;;13.27;4.30;;;10.10;93.90;;;;;;4267809;27;20042;-59
2024/01/31 01:31:57;;;;;;;14.45;4.10;;;10.20;94.30;;;;;;4268112;27;20137;-59
2024/01/31 01:33:59;;;;;;;13.88;4.05;;;10.20;94.00;;;;;;4268126;27;20077;-59
2024/01/31 01:36:03;;;;;;;13.80;4.60;;;10.20;94.40;;;;;;4267861;27;20547;-59
2024/01/31 01:38:05;;;;;;;16.48;4.35;;;10.10;94.50;;;;;;4268259;27;20047;-60
2024/01/31 01:40:09;;;;;;;19.67;4.88;;;10.10;93.80;;;;;;4268043;27;20046;-60
2024/01/31 01:42:11;;;;;;;16.60;4.25;;;10.00;93.20;;;;;;4268659;27;20046;-59
2024/01/31 01:44:14;;;;;;;9.40;3.63;;;10.10;93.10;;;;;;4268558;27;20481;-58
2024/01/31 01:46:20;;;;;;;13.75;3.88;;;10.10;93.20;;;;;;4267904;27;20147;-60
2024/01/31 01:48:22;;;;;;;11.77;3.92;;;10.10;93.30;;;;;;4268979;27;20051;-58
2024/01/31 01:50:24;;;;;;;12.70;4.20;;;10.10;93.20;;;;;;4269757;27;20042;-58
2024/01/31 01:52:28;;;;;;;12.35;3.83;;;10.10;92.80;;;;;;4269530;27;20047;-60
2024/01/31 01:54:31;;;;;;;16.40;4.07;;;10.10;92.90;;;;;;4269741;27;20417;-59
2024/01/31 01:56:33;;;;;;;8.68;3.22;;;10.10;93.10;;;;;;4269483;27;20046;-58
2024/01/31 01:58:36;;;;;;;12.60;3.80;;;10.20;93.40;;;;;;4269632;27;20111;-59
2024/01/31 02:00:40;;;;;;;13.27;3.30;;;10.10;93.30;;;;;;4250642;27;20139;-60
2024/01/31 02:02:42;;;;;;;14.55;3.30;;;10.10;92.80;;;;;;4267571;27;20070;-59
2024/01/31 02:04:45;;;;;;;11.98;3.60;;;10.10;92.80;;;;;;4267485;27;20047;-59
2024/01/31 02:06:48;;;;;;;9.38;3.85;;;10.20;93.00;;;;;;4267697;27;20470;-59
2024/01/31 02:08:51;;;;;;;18.75;4.15;;;10.10;93.40;;;;;;4267605;27;20043;-60
2024/01/31 02:10:54;;;;;;;12.57;3.80;;;10.10;93.90;;;;;;4267397;27;20461;-59
2024/01/31 02:12:56;;;;;;;10.77;3.78;;;10.20;94.30;;;;;;4267059;27;20042;-59
2024/01/31 02:14:58;;;;;;;12.05;3.78;;;10.10;93.30;;;;;;4267343;27;20181;-59
2024/01/31 02:17:00;;;;;;;10.32;2.95;;;10.10;93.80;;;;;;4267335;27;20378;-59
2024/01/31 02:19:02;;;;;;;8.95;3.35;;;10.10;93.80;;;;;;4267352;27;20470;-59
2024/01/31 02:21:04;;;;;;;10.75;3.35;;;10.20;94.20;;;;;;4267245;27;20105;-59
2024/01/31 02:23:08;;;;;;;13.50;3.83;;;10.20;93.90;;;;;;4267192;27;20038;-59
2024/01/31 02:25:12;;;;;;;9.90;3.47;;;10.20;93.70;;;;;;4267291;27;20505;-59
2024/01/31 02:27:14;;;;;;;10.30;2.80;;;10.20;93.70;;;;;;4266889;27;21129;-59
2024/01/31 02:29:16;;;;;;;10.77;3.58;;;10.00;93.20;;;;;;4267451;27;20051;-59
2024/01/31 02:31:18;;;;;;;9.07;2.90;;;10.00;93.60;;;;;;4266571;27;20042;-59
2024/01/31 02:33:20;;;;;;;10.07;4.00;;;10.10;93.60;;;;;;4266402;27;20091;-60
2024/01/31 02:35:23;;;;;;;10.38;3.60;;;10.10;93.30;;;;;;4267116;27;20069;-59
2024/01/31 02:37:25;;;;;;;10.25;3.58;;;10.10;93.10;;;;;;4266800;27;20039;-59
2024/01/31 02:39:31;;;;;;;14.38;3.42;;;10.10;93.20;;;;;;4248463;27;20050;-59
2024/01/31 02:41:33;;;;;;;10.27;3.17;;;10.10;93.10;;;;;;4266713;27;20055;-59
2024/01/31 02:43:35;;;;;;;8.60;3.60;;;10.10;93.40;;;;;;4267046;27;20046;-59
2024/01/31 02:45:37;;;;;;;14.00;4.10;;;10.10;93.00;;;;;;4266959;27;20042;-59
2024/01/31 02:47:39;;;;;;;18.38;4.13;;;10.10;93.20;;;;;;4267016;27;20129;-59
2024/01/31 02:49:41;;;;;;;14.35;4.10;;;10.10;93.50;;;;;;4267098;27;20081;-59
2024/01/31 02:51:44;;;;;;;18.42;4.78;;;10.10;93.90;;;;;;4268039;27;20062;-59
2024/01/31 02:53:46;;;;;;;15.30;4.18;;;10.00;93.60;;;;;;4267504;27;20095;-60
2024/01/31 02:55:49;;;;;;;16.17;4.40;;;10.00;93.80;;;;;;4267055;27;20477;-61
2024/01/31 02:57:51;;;;;;;22.75;5.82;;;9.90;93.60;;;;;;4266936;27;20091;-59
2024/01/31 02:59:53;;;;;;;12.95;4.78;;;9.80;93.70;;;;;;4266677;27;20051;-59
2024/01/31 03:01:55;;;;;;;9.95;4.95;;;9.90;94.20;;;;;;4266891;27;20053;-59
2024/01/31 03:03:57;;;;;;;15.10;4.68;;;9.90;94.20;;;;;;4248566;27;20165;-59
2024/01/31 03:05:59;;;;;;;14.75;5.20;;;9.90;94.10;;;;;;4266529;27;20502;-59
2024/01/31 03:08:02;;;;;;;11.35;4.80;;;9.80;94.20;;;;;;4266459;27;20035;-58
2024/01/31 03:10:04;;;;;;;11.77;4.70;;;9.90;94.50;;;;;;4266253;27;20073;-59
2024/01/31 03:12:08;;;;;;;12.27;4.78;;;10.00;94.10;;;;;;4265728;27;20047;-60
2024/01/31 03:14:10;;;;;;;9.95;4.18;;;10.00;93.90;;;;;;4266516;27;20069;-59
2024/01/31 03:16:12;;;;;;;11.68;4.75;;;10.00;93.80;;;;;;4266175;27;20126;-60
2024/01/31 03:18:15;;;;;;;13.48;4.40;;;10.00;94.00;;;;;;4266370;27;20043;-59
2024/01/31 03:20:17;;;;;;;18.67;4.70;;;10.00;94.30;;;;;;4247765;27;20539;-60
2024/01/31 03:22:19;;;;;;;17.33;4.75;;;10.00;94.20;;;;;;4266275;27;20085;-59
2024/01/31 03:24:21;;;;;;;15.50;4.55;;;10.00;94.10;;;;;;4247712;27;20043;-59
2024/01/31 03:26:23;;;;;;;12.95;4.88;;;10.00;94.10;;;;;;4265884;27;20498;-58
2024/01/31 03:28:27;;;;;;;16.52;5.22;;;10.00;94.30;;;;;;4265959;27;20045;-59
2024/01/31 03:30:29;;;;;;;14.00;4.90;;;10.00;94.20;;;;;;4266188;27;20134;-58
2024/01/31 03:32:31;;;;;;;12.90;5.55;;;9.90;94.00;;;;;;4247531;27;20043;-57
2024/01/31 03:34:34;;;;;;;19.38;5.15;;;9.90;94.10;;;;;;4266337;27;20050;-59
2024/01/31 03:36:37;;;;;;;12.73;4.72;;;10.00;94.00;;;;;;4265796;27;20043;-58
2024/01/31 03:38:39;;;;;;;11.98;5.13;;;10.00;94.00;;;;;;4247838;27;20571;-58
2024/01/31 03:40:42;;;;;;;16.10;5.20;;;10.00;94.20;;;;;;4267173;27;20047;-60
2024/01/31 03:42:44;;;;;;;10.95;4.50;;;10.00;94.10;;;;;;4267483;27;20049;-59
2024/01/31 03:44:48;;;;;;;17.08;4.47;;;10.10;94.10;;;;;;4266029;27;20073;-59
2024/01/31 03:46:50;;;;;;;16.48;4.35;;;10.10;93.80;;;;;;4265819;27;20073;-58
2024/01/31 03:48:52;;;;;;;18.70;5.15;;;10.00;93.90;;;;;;4266053;27;20485;-59
2024/01/31 03:50:54;;;;;;;14.13;4.78;;;10.10;93.70;;;;;;4265841;27;20050;-59
2024/01/31 03:52:56;;;;;;;14.20;4.80;;;10.00;93.40;;;;;;4265451;27;20055;-59
2024/01/31 03:54:59;;;;;;;13.02;4.65;;;10.00;93.40;;;;;;4265225;27;20060;-58
2024/01/31 03:57:02;;;;;;;14.75;5.00;;;10.00;93.90;;;;;;4265461;27;20099;-59
2024/01/31 03:59:04;;;;;;;11.85;4.53;;;10.00;94.00;;;;;;4265701;27;20452;-59
2024/01/31 04:01:07;;;;;;;11.85;4.90;;;9.90;94.20;;;;;;4265938;27;20066;-59
2024/01/31 04:03:10;;;;;;;14.65;5.25;;;10.00;94.50;;;;;;4265596;27;20090;-59
2024/01/31 04:05:12;;;;;;;10.43;4.82;;;9.90;94.30;;;;;;4265688;27;20039;-59
2024/01/31 04:07:14;;;;;;;12.40;5.30;;;9.80;94.50;;;;;;4265313;27;20077;-59
2024/01/31 04:09:17;;;;;;;12.63;5.28;;;9.90;94.90;;;;;;4265234;27;20049;-59
2024/01/31 04:11:19;;;;;;;12.10;4.93;;;9.90;95.00;;;;;;4265247;27;20438;-59
2024/01/31 04:13:21;;;;;;;9.85;4.85;;;10.00;94.40;;;;;;4265359;27;20042;-59
2024/01/31 04:15:23;;;;;;;15.10;4.88;;;9.90;94.50;;;;;;4265384;27;20076;-59
2024/01/31 04:17:26;;;;;;;15.30;5.25;;;10.00;94.80;;;;;;4265208;27;20489;-59
2024/01/31 04:19:28;;;;;;;11.48;4.50;;;9.90;94.50;;;;;;4265159;27;20056;-59
2024/01/31 04:21:30;;;;;;;10.95;4.15;;;10.00;94.10;;;;;;4265238;27;20130;-59
2024/01/31 04:23:32;;;;;;;8.85;4.20;;;10.00;93.70;;;;;;4264897;27;20042;-59
2024/01/31 04:25:34;;;;;;;11.35;3.75;;;10.10;93.50;;;;;;4264975;27;20147;-59
2024/01/31 04:27:37;;;;;;;10.38;3.97;;;10.10;93.80;;;;;;4265223;27;20095;-59
2024/01/31 04:29:39;;;;;;;15.15;4.32;;;10.10;93.50;;;;;;4265095;27;20034;-59
2024/01/31 04:31:41;;;;;;;11.65;3.60;;;10.10;93.00;;;;;;4265172;27;20142;-59
2024/01/31 04:33:46;;;;;;;10.48;4.00;;;10.00;93.10;;;;;;4265189;27;20445;-59
2024/01/31 04:35:50;;;;;;;7.95;3.95;;;10.00;93.10;;;;;;4262300;27;20073;-58
2024/01/31 04:37:52;;;;;;;8.77;3.50;;;10.00;93.00;;;;;;4248868;27;20440;-60
2024/01/31 04:39:54;;;;;;;9.73;3.50;;;9.90;92.90;;;;;;4249471;27;20047;-59
2024/01/31 04:41:56;;;;;;;9.55;3.63;;;9.90;93.00;;;;;;4248218;27;20047;-59
2024/01/31 04:43:58;;;;;;;11.27;3.42;;;10.00;93.60;;;;;;4248139;27;20553;-59
2024/01/31 04:46:00;;;;;;;11.80;3.92;;;10.10;93.10;;;;;;4229867;28;20039;-59
2024/01/31 04:48:03;;;;;;;7.88;3.40;;;9.90;93.10;;;;;;4248008;27;20051;-57
2024/01/31 04:50:07;;;;;;;15.02;3.83;;;9.90;94.00;;;;;;4247951;27;20043;-58
2024/01/31 04:52:11;;;;;;;11.38;3.10;;;10.00;94.60;;;;;;4252315;27;20500;-59
2024/01/31 04:54:13;;;;;;;11.32;3.50;;;10.00;93.80;;;;;;4264639;27;20055;-58
2024/01/31 04:56:19;;;;;;;11.73;3.97;;;10.10;93.90;;;;;;4264594;27;20046;-62
2024/01/31 04:58:21;;;;;;;10.30;4.00;;;9.90;93.60;;;;;;4265103;27;20047;-59
2024/01/31 05:00:23;;;;;;;10.90;3.97;;;10.00;94.10;;;;;;4265004;27;20401;-59
2024/01/31 05:02:25;;;;;;;14.65;4.22;;;10.00;93.90;;;;;;4264721;27;20047;-59
2024/01/31 05:04:28;;;;;;;9.50;3.63;;;10.00;94.10;;;;;;4265014;27;20047;-59
2024/01/31 05:06:31;;;;;;;10.23;3.75;;;10.00;94.40;;;;;;4264572;27;20443;-59
2024/01/31 05:08:33;;;;;;;19.40;4.32;;;10.00;94.30;;;;;;4264833;27;20047;-57
2024/01/31 05:10:36;;;;;;;14.75;4.60;;;10.00;94.00;;;;;;4264757;27;20039;-59
2024/01/31 05:12:38;;;;;;;10.38;4.15;;;10.00;93.50;;;;;;4264696;27;20047;-59
2024/01/31 05:14:40;;;;;;;11.45;3.72;;;10.00;93.40;;;;;;4264807;27;20046;-59
2024/01/31 05:16:42;;;;;;;13.40;3.58;;;9.90;93.80;;;;;;4264941;27;20043;-58
2024/01/31 05:18:45;;;;;;;12.13;3.67;;;9.90;93.40;;;;;;4264835;27;20050;-59
2024/01/31 05:20:48;;;;;;;9.95;3.28;;;9.90;93.80;;;;;;4264895;27;20093;-57
2024/01/31 05:22:51;;;;;;;9.60;3.13;;;10.00;93.40;;;;;;4264706;27;20493;-58
2024/01/31 05:24:53;;;;;;;10.65;3.17;;;10.00;94.20;;;;;;4264840;27;20118;-58
2024/01/31 05:26:56;;;;;;;8.02;3.00;;;10.00;93.80;;;;;;4264613;27;20051;-58
2024/01/31 05:28:58;;;;;;;11.95;2.80;;;10.00;94.00;;;;;;4264698;27;20138;-58
2024/01/31 05:31:00;;;;;;;8.23;2.90;;;10.00;93.70;;;;;;4264710;27;20083;-57
2024/01/31 05:33:02;;;;;;;6.50;2.55;;;10.10;93.30;;;;;;4264703;27;20074;-58
2024/01/31 05:35:05;;;;;;;10.48;2.90;;;10.10;93.50;;;;;;4264476;27;20489;-58
2024/01/31 05:37:07;;;;;;;7.35;2.40;;;10.20;93.30;;;;;;4250404;27;20495;-58
2024/01/31 05:39:11;;;;;;;8.18;2.75;;;10.20;93.00;;;;;;4247209;28;20159;-58
2024/01/31 05:41:13;;;;;;;11.85;2.97;;;10.20;92.90;;;;;;4247658;28;20445;-58
2024/01/31 05:43:18;;;;;;;7.78;2.63;;;10.10;92.20;;;;;;4247536;28;20425;-59
2024/01/31 05:45:20;;;;;;;12.65;2.85;;;10.10;92.00;;;;;;4247480;28;20122;-59
2024/01/31 05:47:22;;;;;;;12.20;3.08;;;10.10;92.90;;;;;;4247512;28;20277;-59
2024/01/31 05:49:25;;;;;;;8.77;3.03;;;10.10;92.90;;;;;;4247650;28;20053;-58
2024/01/31 05:51:27;;;;;;;7.90;2.80;;;10.10;92.90;;;;;;4247282;28;20049;-58
2024/01/31 05:53:30;;;;;;;10.18;2.58;;;10.20;92.40;;;;;;4279882;27;20061;-59
2024/01/31 05:55:33;;;;;;;11.73;2.95;;;10.10;92.70;;;;;;4283318;27;20070;-57
2024/01/31 05:57:36;;;;;;;8.98;3.15;;;10.10;92.80;;;;;;4282276;27;20441;-57
2024/01/31 05:59:41;;;;;;;9.77;3.50;;;10.20;93.20;;;;;;4281708;27;20525;-56
2024/01/31 06:01:43;;;;;;;11.45;3.55;;;10.10;93.00;;;;;;4281899;27;20045;-57
2024/01/31 06:03:46;;;;;;;14.18;3.42;;;10.00;92.70;;;;;;4281554;27;20054;-58
2024/01/31 06:05:48;;;;;;;11.05;3.17;;;10.00;93.50;;;;;;4281204;27;20526;-62
2024/01/31 06:07:50;;;;;;;6.50;2.42;;;9.90;93.50;;;;;;4283337;27;20042;-56
2024/01/31 06:09:52;;;;;;;14.52;3.03;;;9.90;93.40;;;;;;4284640;27;20375;-59
2024/01/31 06:11:55;;;;;;;9.70;3.08;;;9.80;93.10;;;;;;4284793;27;20038;-57
2024/01/31 06:13:57;;;;;;;8.48;2.95;;;9.70;93.70;;;;;;4284791;27;20042;-57
2024/01/31 06:15:59;;;;;;;11.40;2.92;;;9.90;94.10;;;;;;4284525;27;20128;-57
2024/01/31 06:18:02;;;;;;;6.18;2.97;;;9.90;92.90;;;;;;4284661;27;20133;-56
2024/01/31 06:20:05;;;;;;;7.97;2.95;;;9.90;92.80;;;;;;4284486;27;20053;-57
2024/01/31 06:22:07;;;;;;;10.43;3.15;;;9.90;93.10;;;;;;4284555;27;20125;-57
2024/01/31 06:24:09;;;;;;;12.60;3.45;;;9.80;92.90;;;;;;4285123;27;20091;-57
2024/01/31 06:26:11;;;;;;;7.20;2.42;;;9.90;93.70;;;;;;4285866;27;20129;-57
2024/01/31 06:28:15;;;;;;;13.18;3.58;;;9.90;93.20;;;;;;4275627;27;20042;-57
2024/01/31 06:30:30;;;;;;;11.60;2.85;;;9.90;92.80;;;;;;4269149;27;20034;-57
2024/01/31 06:32:34;;;;;;;10.60;2.85;;;10.00;93.60;;;;;;4267455;27;20053;-59
2024/01/31 06:34:37;;;;;;;10.15;2.63;;;9.90;93.10;;;;;;4266973;27;20481;-64
2024/01/31 06:36:39;;;;;;;6.05;2.70;;;9.80;93.30;;;;;;4267008;27;20039;-59
2024/01/31 06:38:41;;;;;;;13.85;3.20;;;9.80;92.90;;;;;;4267059;27;20066;-59
2024/01/31 06:40:43;;;;;;;13.23;3.55;;;9.70;93.50;;;;;;4266937;27;20077;-59
2024/01/31 06:42:45;;;;;;;14.43;2.75;;;9.60;93.00;;;;;;4266561;27;20134;-58
2024/01/31 06:44:48;;;;;;;12.10;3.00;;;9.70;93.90;;;;;;4267130;27;20047;-59
2024/01/31 06:46:51;;;;;;;9.88;2.78;;;9.70;93.70;;;;;;4267009;27;20477;-59
2024/01/31 06:48:53;;;;;;;8.38;2.75;;;9.60;92.90;;;;;;4266532;27;20045;-57
2024/01/31 06:50:55;;;;;;;10.80;2.47;;;9.70;93.50;;;;;;4266804;27;20042;-59
2024/01/31 06:52:57;;;;;;;13.45;3.00;;;9.70;93.60;;;;;;4248005;27;20116;-60
2024/01/31 06:55:01;;;;;;;10.43;2.47;;;9.60;93.40;;;;;;4266759;27;20045;-60
2024/01/31 06:57:03;;;;;;;7.43;2.08;;;9.50;93.50;;;;;;4266559;27;20050;-59
2024/01/31 06:59:07;;;;;;;14.88;2.97;;;9.50;93.70;;;;;;4266976;27;20429;-59
2024/01/31 07:01:13;;;;;;;10.35;2.67;;;9.40;93.50;;;;;;4266527;27;20092;-59
2024/01/31 07:03:16;;;;;;;13.02;2.92;;;9.40;94.30;;;;;;4266389;27;20043;-60
2024/01/31 07:05:18;;;;;;;12.27;2.97;;;9.40;93.70;;;;;;4266512;27;20042;-60
2024/01/31 07:07:21;;;;;;;7.80;2.63;;;9.40;94.30;;;;;;4266760;27;20042;-59
2024/01/31 07:09:23;;;;;;;9.88;3.63;;;9.40;94.00;;;;;;4266764;27;20047;-60
2024/01/31 07:11:25;;;;;;;9.98;2.40;;;9.30;93.70;;;;;;4248018;27;20126;-60
2024/01/31 07:13:27;;;;;;;12.15;2.90;;;9.30;93.70;;;;;;4266193;27;20097;-59
2024/01/31 07:15:29;;;;;;;9.10;2.47;;;9.20;93.50;;;;;;4266306;27;20043;-59
2024/01/31 07:17:33;;;;;;;11.57;2.78;;;9.30;94.00;;;;;;4266025;27;20454;-59
2024/01/31 07:19:35;;;;;;;10.50;2.80;;;9.30;94.30;;;;;;4266179;27;20054;-60
2024/01/31 07:21:37;;;;;;;17.38;3.05;;;9.40;94.70;;;;;;4266445;27;20119;-59
2024/01/31 07:23:39;;;;;;;11.60;2.83;;;9.50;94.40;;;;;;4266322;27;20043;-59
2024/01/31 07:25:41;;;;;;;8.63;3.28;;;9.30;93.90;;;;;;4266138;27;20091;-59
2024/01/31 07:27:44;;;;;;;10.07;3.22;;;9.30;93.50;;;;;;4266220;27;20468;-59
2024/01/31 07:29:46;;;;;;;10.75;3.05;;;9.20;94.10;;;;;;4266435;27;20039;-59
2024/01/31 07:31:48;;;;;;;9.77;2.88;;;9.20;94.20;;;;;;4265806;27;20043;-59
2024/01/31 07:33:51;;;;;;;28.15;3.75;;;9.30;94.50;;;;;;4266216;27;20542;-59
2024/01/31 07:35:54;;;;;;;18.73;3.50;;;9.20;94.00;;;;;;4266014;27;20055;-59
2024/01/31 07:37:56;;;;;;;17.00;3.45;;;9.20;93.80;;;;;;4266006;27;20122;-65
2024/01/31 07:39:58;;;;;;;24.75;5.03;;;9.20;93.60;;;;;;4266255;27;20400;-60
2024/01/31 07:42:00;;;;;;;17.15;4.20;;;9.20;94.00;;;;;;4265764;27;20069;-59
2024/01/31 07:44:03;;;;;;;11.48;3.35;;;9.10;94.10;;;;;;4265882;27;20049;-59
2024/01/31 07:46:05;;;;;;;17.50;3.25;;;9.10;94.40;;;;;;4265352;27;20046;-59
2024/01/31 07:48:07;;;;;;;18.02;3.72;;;9.20;94.60;;;;;;4265951;27;20051;-59
2024/01/31 07:50:11;;;;;;;24.90;4.63;;;9.20;94.50;;;;;;4265924;27;20426;-59
2024/01/31 07:52:13;;;;;;;22.20;4.35;;;9.10;94.80;;;;;;4265500;27;20409;-59
2024/01/31 07:54:16;;;;;;;18.73;3.35;;;9.20;94.40;;;;;;4265480;27;20116;-59
2024/01/31 07:56:18;;;;;;;13.55;3.85;;;9.20;94.70;;;;;;4265556;27;20390;-59
2024/01/31 07:58:20;;;;;;;20.92;3.58;;;9.10;94.80;;;;;;4265682;27;20047;-59
2024/01/31 08:00:22;;;;;;;17.67;4.18;;;9.10;95.10;;;;;;4247309;27;20043;-58
2024/01/31 08:02:24;;;;;;;14.60;4.13;;;9.00;94.90;;;;;;4254991;27;20092;-59
2024/01/31 08:04:27;;;;;;;23.75;3.72;;;8.90;95.40;;;;;;4253315;27;20039;-59
2024/01/31 08:06:31;;;;;;;16.58;4.60;;;9.00;95.50;;;;;;4251269;27;20122;-59
2024/01/31 08:08:33;;;;;;;17.10;3.67;;;9.10;95.10;;;;;;4248679;27;20397;-60
2024/01/31 08:10:35;;;;;;;24.25;3.92;;;9.30;95.30;;;;;;4251917;27;20054;-65
2024/01/31 08:12:38;;;;;;;32.75;4.65;;;9.60;95.20;;;;;;4255357;27;20118;-60
2024/01/31 08:14:41;;;;;;;28.23;4.47;;;9.80;94.40;;;;;;4253980;27;20054;-60
2024/01/31 08:16:44;;;;;;;31.15;4.82;;;9.90;94.70;;;;;;4238958;27;20126;-59
2024/01/31 08:18:46;;;;;;;33.47;4.78;;;9.90;94.20;;;;;;4253512;27;20049;-60
2024/01/31 08:20:48;;;;;;;22.42;5.88;;;10.00;94.50;;;;;;4254510;27;20053;-60
2024/01/31 08:22:52;;;;;;;18.25;4.75;;;10.10;94.00;;;;;;4249141;27;20047;-61
2024/01/31 08:24:54;;;;;;;25.83;5.82;;;10.10;94.30;;;;;;4248701;27;20051;-59
2024/01/31 08:26:56;;;;;;;26.02;5.93;;;10.10;93.80;;;;;;4252945;27;20458;-61
2024/01/31 08:28:58;;;;;;;18.98;5.15;;;10.20;94.00;;;;;;4266242;27;20070;-61
2024/01/31 08:31:17;;;;;;;19.70;5.32;;;10.40;93.80;;;;;;4264295;27;20075;-59
2024/01/31 08:33:19;;;;;;;25.77;4.63;;;10.60;93.90;;;;;;4262436;27;20053;-61
2024/01/31 08:35:21;;;;;;;28.17;5.10;;;10.80;93.80;;;;;;4249369;27;20482;-59
2024/01/31 08:37:23;;;;;;;17.83;4.68;;;11.00;92.80;;;;;;4265160;27;20051;-59
2024/01/31 08:39:29;;;;;;;20.92;5.32;;;11.00;92.80;;;;;;4262049;27;20042;-60
2024/01/31 08:41:31;;;;;;;20.98;4.97;;;11.20;92.90;;;;;;4246803;27;20043;-63
2024/01/31 08:43:33;;;;;;;14.02;4.75;;;11.20;92.60;;;;;;4246728;27;20047;-60
2024/01/31 08:45:35;;;;;;;21.77;4.90;;;11.20;93.20;;;;;;4246308;27;20231;-59
2024/01/31 08:47:37;;;;;;;25.95;5.22;;;11.10;92.90;;;;;;4250671;27;20058;-59
2024/01/31 08:49:40;;;;;;;15.32;4.55;;;11.10;92.80;;;;;;4246973;27;20047;-59
2024/01/31 08:51:42;;;;;;;24.52;5.07;;;11.00;93.40;;;;;;4262080;27;20101;-61
2024/01/31 08:53:44;;;;;;;12.23;4.55;;;11.10;92.90;;;;;;4258500;27;20082;-61
2024/01/31 08:55:47;;;;;;;32.28;11.25;;;11.20;93.20;;;;;;4249820;27;20137;-61
2024/01/31 08:58:06;;;;;;;35.00;6.90;;;11.20;93.20;;;;;;4248280;27;20571;-62
2024/01/31 09:00:10;;;;;;;28.20;6.18;;;11.20;92.40;;;;;;4249182;28;20043;-59
2024/01/31 09:02:12;;;;;;;31.00;6.18;;;11.20;92.90;;;;;;4248649;28;20043;-60
2024/01/31 09:04:14;;;;;;;25.67;6.30;;;11.20;93.30;;;;;;4248703;28;20402;-59
2024/01/31 09:06:16;;;;;;;18.20;5.38;;;11.10;92.90;;;;;;4248071;28;20099;-59
2024/01/31 09:08:18;;;;;;;16.23;4.25;;;11.20;92.90;;;;;;4247823;28;20066;-60
2024/01/31 09:10:21;;;;;;;18.83;4.88;;;11.10;93.10;;;;;;4248398;28;20047;-59
2024/01/31 09:12:25;;;;;;;12.10;4.00;;;11.20;93.70;;;;;;4248778;28;20110;-59
2024/01/31 09:14:27;;;;;;;13.10;4.50;;;11.20;93.60;;;;;;4247839;28;20051;-59
2024/01/31 09:16:30;;;;;;;14.52;4.25;;;11.20;94.00;;;;;;4247974;28;20054;-58
2024/01/31 09:18:33;;;;;;;17.30;4.10;;;11.30;94.00;;;;;;4248192;28;20043;-58
2024/01/31 09:20:35;;;;;;;11.55;3.35;;;11.10;93.90;;;;;;4247872;28;20046;-62
2024/01/31 09:22:38;;;;;;;12.43;3.38;;;11.00;94.40;;;;;;4248314;28;20047;-59
2024/01/31 09:24:41;;;;;;;5.90;2.58;;;10.90;94.80;;;;;;4248037;28;20047;-60
2024/01/31 09:26:43;;;;;;;10.90;3.65;;;11.00;94.70;;;;;;4248123;28;20047;-58
2024/01/31 09:28:47;;;;;;;12.15;3.25;;;11.00;94.70;;;;;;4261900;27;20436;-61
2024/01/31 09:30:49;;;;;;;16.45;2.95;;;11.00;95.00;;;;;;4265095;27;20450;-59
2024/01/31 09:32:51;;;;;;;10.25;3.50;;;11.10;95.10;;;;;;4264753;27;20401;-59
2024/01/31 09:34:53;;;;;;;13.20;3.60;;;11.10;95.20;;;;;;4264563;27;20051;-59
2024/01/31 09:36:59;;;;;;;9.93;4.15;;;11.10;95.40;;;;;;4251805;27;20104;-59
2024/01/31 09:39:00;;;;;;;9.20;3.55;;;11.10;95.20;;;;;;4247168;28;20124;-58
2024/01/31 09:41:05;;;;;;;;;;;11.10;95.30;;;;;;4248841;27;20043;-59
2024/01/31 09:43:08;;;;;;;11.52;3.80;;;11.10;95.20;;;;;;4250560;27;19919;-58
2024/01/31 09:45:13;;;;;;;15.18;4.13;;;11.00;95.40;;;;;;4250421;27;20047;-59
2024/01/31 09:47:15;;;;;;;11.27;4.38;;;10.90;95.60;;;;;;4250776;27;20066;-59
2024/01/31 09:49:17;;;;;;;10.23;4.07;;;11.00;95.70;;;;;;4250854;27;20100;-59
2024/01/31 09:51:21;;;;;;;16.13;4.60;;;11.10;95.80;;;;;;4250536;27;20053;-58
2024/01/31 09:53:24;;;;;;;11.07;4.10;;;11.10;95.60;;;;;;4281354;27;20060;-58
2024/01/31 09:55:28;;;;;;;12.95;4.20;;;11.10;95.80;;;;;;4266734;27;20103;-59
2024/01/31 09:57:30;;;;;;;10.38;4.25;;;11.20;95.60;;;;;;4285681;27;20042;-64
2024/01/31 09:59:33;;;;;;;11.45;4.28;;;11.30;95.60;;;;;;4267683;27;20074;-60
2024/01/31 10:01:42;;;;;;;16.95;4.53;;;11.40;95.60;;;;;;4285178;27;20050;-59
2024/01/31 10:03:45;;;;;;;13.77;4.43;;;11.30;95.60;;;;;;4284749;27;20046;-59
2024/01/31 10:05:47;;;;;;;14.55;4.72;;;11.00;95.90;;;;;;4284690;27;20073;-59
2024/01/31 10:07:49;;;;;;;17.60;4.93;;;11.10;96.20;;;;;;4284477;27;20230;-59
2024/01/31 10:09:53;;;;;;;15.63;5.38;;;11.00;96.20;;;;;;4284888;27;20447;-58
2024/01/31 10:11:55;;;;;;;13.65;4.10;;;11.10;96.30;;;;;;4284366;27;20070;-59
2024/01/31 10:13:57;;;;;;;10.68;4.47;;;11.10;96.20;;;;;;4284746;27;20053;-59
2024/01/31 10:15:59;;;;;;;9.02;4.50;;;11.10;96.50;;;;;;4266030;27;20067;-59
2024/01/31 10:18:04;;;;;;;11.32;4.93;;;11.30;96.40;;;;;;4284654;27;20058;-59
2024/01/31 10:20:10;;;;;;;17.45;5.22;;;11.30;96.40;;;;;;4284557;27;20042;-58
2024/01/31 10:22:13;;;;;;;17.75;5.65;;;11.40;96.40;;;;;;4284525;27;20057;-59
2024/01/31 10:24:15;;;;;;;17.10;5.30;;;11.50;96.40;;;;;;4284577;27;20038;-59
2024/01/31 10:26:18;;;;;;;13.18;4.72;;;11.70;96.40;;;;;;4283896;27;20073;-59
2024/01/31 10:28:21;;;;;;;15.05;5.65;;;11.70;96.30;;;;;;4273554;27;20486;-57
2024/01/31 10:30:23;;;;;;;11.98;5.22;;;11.70;96.60;;;;;;4267246;27;20043;-59
2024/01/31 10:32:26;;;;;;;14.07;5.10;;;11.90;96.50;;;;;;4267117;27;20047;-58
2024/01/31 10:34:30;;;;;;;14.77;5.60;;;11.80;96.40;;;;;;4267149;27;20050;-59
2024/01/31 10:36:49;;;;;;;13.90;5.82;;;11.90;96.50;;;;;;4267040;27;20062;-58